Weather at Milmet Airport

Public forecast

Using degrees Celsius for public forecast. Weather courtesy of forecast.io.

Closest aviation weather report (METAR) to Milmet Airport

Closest report is Nakuru Airport, 11.4 nm (21.1 km) S.

2024/05/29 12:00 (retrieved 1 hour ago)

HKNK 291200Z 26006KT 9999 FEW027CB BKN028 26/13

Closest aviation forecast (TAF) to Milmet Airport

Closest forecast is Eldoret International Airport, 61.5 nm (114.0 km) WNW.

2024/05/29 12:54 (retrieved 7 minutes ago)

TAF TAF HKEL 291100Z 2912/3018 32007KT 9999 SCT023 TEMPO 2913/2917 -TSRA FEW020CB BKN080 BECMG 2920/2923 16005KT CAVOK BECMG 3001/3004 VRB02KT 9999 FEW018 BECMG 3008/3011 19010KT FEW020CB SCT021